createdAt,value
2019-06-26T00:02:06.489Z,14.43
2019-06-26T00:04:39.608Z,12.85
2019-06-26T00:07:12.770Z,14.13
2019-06-26T00:09:45.920Z,15.13
2019-06-26T00:12:19.315Z,14.60
2019-06-26T00:14:52.393Z,14.63
2019-06-26T00:17:25.360Z,16.17
2019-06-26T00:19:58.539Z,15.03
2019-06-26T00:22:31.592Z,14.43
2019-06-26T00:25:04.547Z,14.58
2019-06-26T00:27:37.541Z,15.00
2019-06-26T00:30:11.541Z,14.70
2019-06-26T00:32:44.632Z,14.03
2019-06-26T00:35:17.916Z,13.65
2019-06-26T00:37:50.946Z,13.90
2019-06-26T00:40:24.031Z,14.93
2019-06-26T00:42:57.441Z,14.15
2019-06-26T00:45:30.477Z,15.50
2019-06-26T00:48:03.410Z,15.03
2019-06-26T00:50:36.471Z,14.60
2019-06-26T00:53:09.606Z,13.98
2019-06-26T00:55:42.683Z,14.73
2019-06-26T00:58:15.610Z,14.53
2019-06-26T01:00:52.285Z,13.78
2019-06-26T01:03:25.356Z,16.10
2019-06-26T01:05:58.395Z,15.72
2019-06-26T01:08:31.433Z,17.20
2019-06-26T01:11:04.644Z,17.75
2019-06-26T01:13:37.601Z,17.02
2019-06-26T01:16:10.747Z,16.23
2019-06-26T01:18:43.853Z,16.37
2019-06-26T01:21:17.028Z,18.95
2019-06-26T01:23:50.213Z,18.75
2019-06-26T01:26:23.836Z,15.75
2019-06-26T01:28:57.083Z,15.32
2019-06-26T01:31:30.152Z,15.40
2019-06-26T01:34:03.151Z,16.55
2019-06-26T01:36:36.041Z,14.73
2019-06-26T01:39:10.387Z,19.02
2019-06-26T01:41:44.701Z,15.63
2019-06-26T01:44:17.758Z,15.50
2019-06-26T01:46:50.735Z,14.78
2019-06-26T01:49:23.837Z,14.78
2019-06-26T01:51:56.815Z,15.08
2019-06-26T01:54:29.793Z,14.98
2019-06-26T01:57:02.735Z,15.50
2019-06-26T01:59:35.838Z,13.62
2019-06-26T02:02:08.972Z,13.83
2019-06-26T02:04:41.984Z,14.63
2019-06-26T02:07:15.876Z,14.07
2019-06-26T02:09:48.845Z,14.33
2019-06-26T02:12:21.949Z,14.53
2019-06-26T02:14:55.046Z,15.05
2019-06-26T02:17:28.069Z,14.10
2019-06-26T02:20:01.133Z,15.00
2019-06-26T02:22:35.534Z,14.68
2019-06-26T02:25:09.463Z,15.93
2019-06-26T02:27:42.555Z,17.30
2019-06-26T02:30:15.729Z,18.52
2019-06-26T02:32:49.056Z,17.42
2019-06-26T02:35:23.311Z,17.37
2019-06-26T02:37:56.286Z,18.37
2019-06-26T02:40:29.306Z,17.60
2019-06-26T02:43:06.638Z,18.07
2019-06-26T02:45:37.779Z,18.07
2019-06-26T02:48:10.868Z,18.25
2019-06-26T02:50:44.023Z,17.67
2019-06-26T02:53:17.043Z,16.57
2019-06-26T02:55:49.971Z,18.73
2019-06-26T02:58:22.972Z,16.95
2019-06-26T03:00:56.001Z,18.23
2019-06-26T03:03:29.241Z,18.52
2019-06-26T03:06:02.141Z,18.17
2019-06-26T03:08:35.075Z,17.62
2019-06-26T03:11:08.150Z,16.15
2019-06-26T03:13:41.155Z,16.40
2019-06-26T03:16:14.141Z,15.35
2019-06-26T03:18:47.179Z,15.32
2019-06-26T03:21:20.213Z,15.85
2019-06-26T03:23:53.297Z,14.80
2019-06-26T03:26:27.405Z,14.87
2019-06-26T03:29:00.350Z,16.02
2019-06-26T03:31:33.323Z,16.37
2019-06-26T03:34:06.364Z,15.35
2019-06-26T03:36:39.349Z,15.80
2019-06-26T03:39:12.470Z,16.50
2019-06-26T03:41:45.423Z,17.05
2019-06-26T03:44:18.506Z,17.30
2019-06-26T03:46:51.559Z,17.23
2019-06-26T03:49:24.528Z,17.17
2019-06-26T03:51:57.514Z,17.60
2019-06-26T03:54:30.570Z,17.17
2019-06-26T03:57:03.505Z,17.30
2019-06-26T03:59:36.524Z,17.00
2019-06-26T04:02:09.497Z,17.25
2019-06-26T04:04:42.402Z,18.25
2019-06-26T04:07:15.378Z,17.37
2019-06-26T04:09:48.535Z,17.50
2019-06-26T04:12:21.551Z,17.07
2019-06-26T04:14:54.488Z,13.08
2019-06-26T04:17:27.588Z,14.87
2019-06-26T04:20:00.625Z,14.07
2019-06-26T04:22:33.653Z,13.98
2019-06-26T04:25:07.374Z,13.25
2019-06-26T04:27:40.380Z,13.22
2019-06-26T04:30:13.883Z,12.98
2019-06-26T04:32:46.908Z,13.75
2019-06-26T04:35:19.930Z,13.43
2019-06-26T04:37:52.978Z,14.28
2019-06-26T04:40:25.985Z,13.70
2019-06-26T04:42:59.085Z,12.40
2019-06-26T04:45:32.125Z,12.90
2019-06-26T04:48:07.215Z,12.53
2019-06-26T04:50:39.994Z,13.32
2019-06-26T04:53:12.987Z,11.68
2019-06-26T04:55:47.267Z,11.43
2019-06-26T04:58:20.194Z,10.98
2019-06-26T05:00:53.232Z,11.05
2019-06-26T05:03:26.233Z,11.15
2019-06-26T05:05:59.209Z,10.85
2019-06-26T05:08:32.242Z,10.68
2019-06-26T05:11:05.192Z,10.43
2019-06-26T05:13:38.187Z,10.90
2019-06-26T05:16:15.653Z,10.78
2019-06-26T05:18:45.939Z,11.43
2019-06-26T05:21:19.041Z,10.23
2019-06-26T05:23:51.998Z,9.78
2019-06-26T05:26:25.082Z,11.18
2019-06-26T05:28:58.026Z,11.30
2019-06-26T05:31:30.998Z,10.18
2019-06-26T05:34:03.879Z,10.23
2019-06-26T05:36:36.883Z,9.55
2019-06-26T05:39:09.842Z,10.40
2019-06-26T05:41:42.925Z,10.20
2019-06-26T05:44:15.836Z,10.15
2019-06-26T05:46:48.838Z,10.23
2019-06-26T05:49:21.942Z,10.68
2019-06-26T05:51:54.935Z,9.73
2019-06-26T05:54:27.842Z,10.28
2019-06-26T05:57:00.971Z,9.90
2019-06-26T05:59:33.939Z,9.68
2019-06-26T06:02:07.344Z,9.40
2019-06-26T06:04:40.234Z,10.95
2019-06-26T06:07:13.238Z,9.15
2019-06-26T06:09:46.127Z,10.10
2019-06-26T06:12:19.035Z,9.55
2019-06-26T06:14:52.179Z,10.70
2019-06-26T06:17:25.081Z,8.28
2019-06-26T06:19:58.115Z,8.63
2019-06-26T06:22:31.080Z,10.98
2019-06-26T06:25:04.874Z,11.63
2019-06-26T06:27:37.837Z,8.50
2019-06-26T06:30:11.486Z,9.40
2019-06-26T06:32:44.458Z,9.03
2019-06-26T06:35:17.416Z,9.70
2019-06-26T06:37:50.425Z,9.18
2019-06-26T06:40:23.562Z,9.73
2019-06-26T06:42:57.285Z,9.60
2019-06-26T06:45:31.632Z,8.78
2019-06-26T06:48:04.782Z,9.90
2019-06-26T06:50:37.867Z,9.13
2019-06-26T06:53:11.006Z,10.00
2019-06-26T06:55:43.962Z,11.40
2019-06-26T06:58:16.955Z,9.15
2019-06-26T07:00:49.912Z,9.40
2019-06-26T07:03:23.267Z,9.78
2019-06-26T07:05:56.285Z,9.90
2019-06-26T07:08:29.312Z,8.73
2019-06-26T07:11:02.317Z,8.93
2019-06-26T07:13:35.768Z,8.90
2019-06-26T07:16:08.760Z,8.48
2019-06-26T07:18:41.847Z,9.63
2019-06-26T07:21:14.906Z,8.98
2019-06-26T07:23:48.060Z,8.93
2019-06-26T07:26:21.172Z,8.90
2019-06-26T07:28:54.008Z,8.90
2019-06-26T07:31:27.097Z,7.95
2019-06-26T07:34:00.094Z,8.40
2019-06-26T07:36:33.508Z,8.08
2019-06-26T07:39:08.813Z,8.48
2019-06-26T07:41:41.789Z,8.05
2019-06-26T07:44:14.676Z,8.63
2019-06-26T07:46:47.686Z,8.23
2019-06-26T07:49:20.650Z,7.50
2019-06-26T07:51:53.796Z,7.80
2019-06-26T07:54:27.574Z,8.70
2019-06-26T07:57:00.582Z,6.92
2019-06-26T07:59:34.633Z,7.55
2019-06-26T08:02:07.756Z,7.80
2019-06-26T08:04:40.742Z,7.90
2019-06-26T08:07:13.827Z,7.58
2019-06-26T08:09:46.838Z,7.50
2019-06-26T08:12:19.873Z,6.70
2019-06-26T08:14:52.915Z,6.78
2019-06-26T08:17:25.856Z,6.78
2019-06-26T08:19:58.823Z,6.60
2019-06-26T08:22:31.817Z,6.35
2019-06-26T08:25:05.987Z,7.45
2019-06-26T08:27:39.204Z,6.17
2019-06-26T08:30:12.723Z,6.00
2019-06-26T08:32:45.914Z,6.53
2019-06-26T08:35:19.315Z,5.47
2019-06-26T08:38:05.663Z,5.40
2019-06-26T08:40:27.174Z,6.05
2019-06-26T08:43:00.228Z,5.30
2019-06-26T08:45:33.134Z,5.08
2019-06-26T08:48:18.918Z,4.75
2019-06-26T08:50:41.949Z,4.95
2019-06-26T08:53:14.910Z,5.17
2019-06-26T08:55:47.916Z,5.47
2019-06-26T08:58:20.921Z,5.05
2019-06-26T09:00:53.859Z,4.78
2019-06-26T09:03:26.819Z,4.58
2019-06-26T09:05:59.963Z,4.83
2019-06-26T09:08:33.165Z,4.80
2019-06-26T09:11:06.331Z,5.17
2019-06-26T09:13:41.956Z,4.40
2019-06-26T09:16:18.170Z,4.95
2019-06-26T09:18:55.437Z,4.72
2019-06-26T09:21:31.242Z,5.25
2019-06-26T09:24:05.829Z,4.67
2019-06-26T09:26:41.046Z,4.92
2019-06-26T09:29:17.249Z,5.40
2019-06-26T09:31:50.438Z,5.22
2019-06-26T09:34:23.488Z,5.17
2019-06-26T09:37:00.857Z,4.85
2019-06-26T09:39:33.899Z,4.50
2019-06-26T09:42:09.707Z,4.70
2019-06-26T09:44:42.708Z,5.08
2019-06-26T09:47:15.807Z,5.15
2019-06-26T09:49:48.950Z,5.58
2019-06-26T09:52:22.171Z,4.72
2019-06-26T09:54:58.363Z,5.10
2019-06-26T09:57:31.431Z,5.28
2019-06-26T10:00:05.199Z,5.65
2019-06-26T10:02:40.662Z,5.28
2019-06-26T10:05:14.947Z,5.45
2019-06-26T10:07:48.539Z,5.90
2019-06-26T10:10:24.501Z,5.10
2019-06-26T10:13:03.536Z,5.05
2019-06-26T10:15:36.605Z,5.37
2019-06-26T10:18:09.850Z,5.55
2019-06-26T10:20:51.832Z,5.70
2019-06-26T10:23:24.828Z,4.92
2019-06-26T10:25:58.265Z,5.60
2019-06-26T10:28:34.498Z,6.03
2019-06-26T10:31:07.447Z,5.62
2019-06-26T10:33:41.731Z,6.00
2019-06-26T10:36:18.209Z,6.00
2019-06-26T10:38:52.151Z,5.92
2019-06-26T10:41:24.970Z,5.47
2019-06-26T10:43:58.009Z,5.78
2019-06-26T10:46:31.126Z,5.47
2019-06-26T10:49:04.185Z,5.60
2019-06-26T10:51:37.693Z,5.03
2019-06-26T10:54:10.649Z,5.92
2019-06-26T10:56:43.738Z,6.72
2019-06-26T10:59:19.863Z,6.40
2019-06-26T11:01:54.195Z,5.45
2019-06-26T11:04:27.166Z,5.87
2019-06-26T11:07:00.738Z,5.37
2019-06-26T11:09:36.991Z,5.08
2019-06-26T11:12:09.956Z,5.28
2019-06-26T11:14:44.341Z,5.15
2019-06-26T11:17:17.454Z,5.10
2019-06-26T11:19:55.229Z,5.00
2019-06-26T11:22:26.635Z,5.47
2019-06-26T11:25:00.954Z,4.72
2019-06-26T11:27:34.141Z,4.22
2019-06-26T11:30:11.168Z,4.72
2019-06-26T11:32:44.482Z,4.78
2019-06-26T11:35:17.773Z,4.33
2019-06-26T11:37:50.777Z,4.30
2019-06-26T11:40:25.401Z,4.42
2019-06-26T11:43:01.520Z,4.42
2019-06-26T11:45:37.568Z,4.15
2019-06-26T11:48:11.757Z,4.30
2019-06-26T11:50:44.679Z,4.33
2019-06-26T11:53:17.710Z,4.33
2019-06-26T11:55:52.342Z,4.40
2019-06-26T11:58:25.908Z,4.08
2019-06-26T12:01:02.089Z,5.37
2019-06-26T12:03:35.184Z,4.58
2019-06-26T12:06:18.266Z,4.53
2019-06-26T12:08:43.419Z,4.80
2019-06-26T12:11:16.292Z,4.55
2019-06-26T12:13:49.492Z,6.00
2019-06-26T12:16:22.641Z,4.55
2019-06-26T12:18:55.812Z,4.40
2019-06-26T12:21:28.927Z,4.92
2019-06-26T12:24:02.066Z,4.58
2019-06-26T12:26:35.249Z,5.33
2019-06-26T12:29:08.793Z,4.78
2019-06-26T12:31:41.812Z,4.85
2019-06-26T12:34:15.195Z,4.80
2019-06-26T12:36:48.464Z,4.33
2019-06-26T12:39:21.711Z,4.70
2019-06-26T12:41:55.277Z,4.60
2019-06-26T12:44:28.612Z,4.50
2019-06-26T12:47:09.992Z,4.30
2019-06-26T12:49:43.737Z,4.58
2019-06-26T12:52:17.158Z,4.37
2019-06-26T12:54:51.462Z,5.05
2019-06-26T12:57:24.487Z,4.22
2019-06-26T12:59:58.129Z,5.40
2019-06-26T13:02:31.273Z,4.70
2019-06-26T13:05:04.470Z,4.25
2019-06-26T13:07:37.457Z,4.75
2019-06-26T13:10:11.468Z,5.00
2019-06-26T13:12:46.054Z,5.10
2019-06-26T13:15:19.946Z,4.62
2019-06-26T13:17:53.229Z,4.95
2019-06-26T13:20:26.420Z,4.65
2019-06-26T13:22:59.549Z,5.15
2019-06-26T13:25:32.837Z,4.47
2019-06-26T13:28:06.820Z,4.47
2019-06-26T13:30:40.507Z,4.92
2019-06-26T13:33:13.616Z,4.20
2019-06-26T13:35:46.825Z,3.90
2019-06-26T13:38:19.764Z,3.58
2019-06-26T13:40:52.824Z,3.90
2019-06-26T13:43:25.710Z,4.05
2019-06-26T13:45:59.010Z,3.98
2019-06-26T13:48:32.008Z,3.92
2019-06-26T13:51:09.620Z,3.77
2019-06-26T13:53:39.801Z,4.20
2019-06-26T13:56:12.901Z,4.03
2019-06-26T13:58:45.942Z,3.80
2019-06-26T14:01:22.788Z,4.20
2019-06-26T14:03:53.866Z,4.20
2019-06-26T14:06:26.903Z,4.12
2019-06-26T14:08:59.832Z,3.87
2019-06-26T14:11:32.766Z,5.33
2019-06-26T14:14:05.783Z,4.35
2019-06-26T14:16:39.864Z,4.20
2019-06-26T14:19:12.981Z,4.28
2019-06-26T14:21:46.328Z,4.55
2019-06-26T14:24:19.681Z,4.53
2019-06-26T14:26:53.123Z,4.83
2019-06-26T14:29:29.333Z,4.53
2019-06-26T14:32:03.420Z,5.25
2019-06-26T14:34:36.691Z,5.55
2019-06-26T14:37:10.046Z,5.53
2019-06-26T14:39:43.348Z,5.12
2019-06-26T14:42:16.372Z,4.87
2019-06-26T14:44:52.618Z,5.35
2019-06-26T14:47:24.346Z,4.90
2019-06-26T14:49:58.375Z,4.75
2019-06-26T14:52:34.191Z,4.65
2019-06-26T14:55:07.030Z,4.58
2019-06-26T14:57:40.407Z,5.35
2019-06-26T15:00:14.676Z,4.60
2019-06-26T15:02:47.667Z,4.95
2019-06-26T15:05:20.823Z,4.70
2019-06-26T15:07:53.791Z,4.70
2019-06-26T15:10:26.837Z,5.00
2019-06-26T15:12:59.738Z,5.10
2019-06-26T15:15:33.126Z,5.53
2019-06-26T15:18:06.193Z,5.12
2019-06-26T15:20:39.120Z,5.30
2019-06-26T15:23:12.222Z,5.42
2019-06-26T15:25:45.144Z,5.35
2019-06-26T15:28:18.303Z,5.12
2019-06-26T15:30:51.317Z,5.00
2019-06-26T15:33:24.293Z,5.80
2019-06-26T15:35:57.428Z,5.97
2019-06-26T15:38:30.486Z,5.90
2019-06-26T15:41:03.370Z,5.50
2019-06-26T15:43:36.345Z,5.50
2019-06-26T15:46:09.423Z,5.90
2019-06-26T15:48:42.652Z,5.12
2019-06-26T15:51:15.602Z,5.30
2019-06-26T15:53:48.549Z,5.45
2019-06-26T15:56:21.458Z,5.05
2019-06-26T15:58:54.641Z,5.25
2019-06-26T16:01:27.650Z,5.20
2019-06-26T16:04:00.654Z,5.95
2019-06-26T16:06:33.606Z,5.70
2019-06-26T16:09:07.749Z,5.37
2019-06-26T16:11:40.672Z,5.58
2019-06-26T16:14:13.683Z,5.30
2019-06-26T16:16:48.210Z,5.42
2019-06-26T16:19:22.553Z,5.22
2019-06-26T16:21:55.487Z,5.50
2019-06-26T16:24:30.267Z,4.78
2019-06-26T16:27:03.603Z,5.30
2019-06-26T16:29:36.497Z,5.62
2019-06-26T16:32:09.576Z,5.05
2019-06-26T16:34:42.675Z,4.90
2019-06-26T16:37:15.669Z,5.20
2019-06-26T16:39:48.925Z,4.62
2019-06-26T16:42:21.892Z,5.20
2019-06-26T16:44:54.800Z,5.03
2019-06-26T16:47:28.047Z,5.28
2019-06-26T16:50:02.691Z,5.50
2019-06-26T16:52:48.671Z,5.60
2019-06-26T16:55:12.542Z,5.00
2019-06-26T16:57:45.640Z,5.20
2019-06-26T17:00:19.266Z,5.72
2019-06-26T17:02:55.416Z,5.10
2019-06-26T17:05:31.332Z,5.53
2019-06-26T17:08:04.490Z,6.00
2019-06-26T17:10:37.752Z,5.47
2019-06-26T17:13:13.927Z,5.42
2019-06-26T17:15:47.237Z,5.80
2019-06-26T17:18:20.381Z,5.83
2019-06-26T17:20:53.481Z,5.85
2019-06-26T17:23:27.650Z,5.42
2019-06-26T17:26:00.662Z,4.80
2019-06-26T17:28:33.786Z,5.62
2019-06-26T17:31:07.190Z,5.55
2019-06-26T17:33:40.364Z,5.87
2019-06-26T17:36:13.308Z,5.97
2019-06-26T17:38:46.434Z,5.42
2019-06-26T17:41:19.485Z,5.95
2019-06-26T17:43:52.618Z,5.85
2019-06-26T17:46:25.786Z,5.60
2019-06-26T17:49:01.535Z,6.12
2019-06-26T17:51:34.616Z,5.95
2019-06-26T17:54:07.751Z,6.03
2019-06-26T17:56:40.718Z,7.12
2019-06-26T17:59:13.943Z,6.45
2019-06-26T18:01:47.112Z,7.03
2019-06-26T18:04:20.231Z,6.85
2019-06-26T18:06:53.223Z,6.42
2019-06-26T18:09:26.209Z,6.45
2019-06-26T18:11:59.224Z,6.35
2019-06-26T18:14:32.282Z,6.12
2019-06-26T18:17:17.937Z,7.00
2019-06-26T18:19:39.949Z,6.40
2019-06-26T18:22:13.297Z,6.87
2019-06-26T18:24:46.414Z,6.20
2019-06-26T18:27:19.549Z,7.03
2019-06-26T18:29:52.841Z,6.55
2019-06-26T18:32:25.959Z,6.83
2019-06-26T18:34:59.025Z,6.70
2019-06-26T18:37:31.947Z,6.42
2019-06-26T18:40:05.496Z,6.47
2019-06-26T18:42:40.847Z,6.67
2019-06-26T18:45:14.039Z,7.03
2019-06-26T18:47:47.534Z,7.10
2019-06-26T18:50:20.806Z,6.75
2019-06-26T18:52:53.856Z,7.10
2019-06-26T18:55:28.350Z,6.62
2019-06-26T18:58:01.634Z,6.30
2019-06-26T19:00:35.043Z,7.12
2019-06-26T19:03:12.264Z,7.40
2019-06-26T19:05:46.657Z,7.12
2019-06-26T19:08:21.488Z,7.00
2019-06-26T19:10:55.121Z,7.15
2019-06-26T19:13:28.655Z,7.20
2019-06-26T19:16:04.437Z,7.33
2019-06-26T19:18:38.462Z,6.97
2019-06-26T19:21:12.208Z,7.42
2019-06-26T19:23:45.378Z,6.90
2019-06-26T19:26:18.667Z,7.65
2019-06-26T19:28:52.164Z,7.22
2019-06-26T19:31:26.252Z,7.03
2019-06-26T19:34:01.097Z,6.60
2019-06-26T19:36:49.166Z,7.92
2019-06-26T19:39:10.034Z,7.40
2019-06-26T19:41:46.438Z,7.05
2019-06-26T19:44:19.899Z,6.87
2019-06-26T19:46:55.536Z,8.00
2019-06-26T19:49:29.247Z,7.15
2019-06-26T19:52:03.219Z,6.58
2019-06-26T19:54:39.401Z,7.33
2019-06-26T19:57:13.166Z,7.28
2019-06-26T19:59:47.419Z,6.60
2019-06-26T20:02:21.534Z,6.95
2019-06-26T20:04:55.115Z,7.12
2019-06-26T20:07:28.197Z,6.65
2019-06-26T20:10:02.070Z,7.60
2019-06-26T20:12:35.410Z,7.08
2019-06-26T20:15:09.542Z,5.47
2019-06-26T20:17:42.620Z,7.28
2019-06-26T20:20:16.168Z,6.83
2019-06-26T20:22:49.904Z,7.12
2019-06-26T20:25:22.944Z,6.87
2019-06-26T20:27:57.126Z,6.17
2019-06-26T20:30:33.625Z,6.58
2019-06-26T20:33:06.560Z,6.60
2019-06-26T20:35:39.515Z,6.72
2019-06-26T20:38:12.598Z,7.35
2019-06-26T20:40:46.240Z,7.78
2019-06-26T20:43:19.420Z,6.55
2019-06-26T20:45:52.556Z,6.45
2019-06-26T20:48:25.735Z,7.30
2019-06-26T20:50:58.950Z,6.95
2019-06-26T20:53:32.077Z,7.58
2019-06-26T20:56:05.744Z,6.75
2019-06-26T20:58:38.997Z,7.70
2019-06-26T21:01:11.974Z,7.22
2019-06-26T21:03:45.055Z,7.47
2019-06-26T21:06:17.987Z,7.85
2019-06-26T21:08:51.076Z,7.62
2019-06-26T21:11:24.090Z,7.47
2019-06-26T21:13:57.122Z,7.25
2019-06-26T21:16:30.102Z,6.70
2019-06-26T21:19:03.347Z,7.33
2019-06-26T21:21:36.679Z,7.40
2019-06-26T21:24:09.774Z,8.25
2019-06-26T21:26:42.901Z,6.75
2019-06-26T21:29:15.818Z,6.47
2019-06-26T21:31:48.823Z,6.22
2019-06-26T21:34:21.774Z,6.33
2019-06-26T21:36:54.779Z,7.22
2019-06-26T21:39:27.758Z,6.65
2019-06-26T21:42:00.939Z,5.97
2019-06-26T21:44:34.087Z,6.65
2019-06-26T21:47:07.370Z,6.45
2019-06-26T21:49:40.345Z,6.17
2019-06-26T21:52:13.464Z,6.65
2019-06-26T21:54:46.658Z,6.00
2019-06-26T21:57:37.430Z,6.47
2019-06-26T22:00:30.146Z,5.62
2019-06-26T22:03:21.289Z,6.20
2019-06-26T22:05:56.003Z,5.75
2019-06-26T22:08:42.618Z,5.80
2019-06-26T22:11:17.439Z,6.03
2019-06-26T22:13:50.653Z,7.25
2019-06-26T22:16:24.269Z,5.58
2019-06-26T22:18:58.375Z,6.47
2019-06-26T22:21:31.462Z,6.95
2019-06-26T22:24:05.520Z,5.83
2019-06-26T22:26:38.668Z,5.28
2019-06-26T22:29:11.590Z,6.30
2019-06-26T22:31:44.637Z,5.55
2019-06-26T22:34:17.620Z,5.92
2019-06-26T22:36:52.202Z,5.70
2019-06-26T22:39:25.471Z,6.22
2019-06-26T22:41:58.665Z,6.95
2019-06-26T22:44:31.588Z,5.47
2019-06-26T22:47:04.607Z,5.83
2019-06-26T22:49:39.347Z,5.80
2019-06-26T22:52:12.484Z,5.42
2019-06-26T22:54:46.200Z,5.80
2019-06-26T22:57:19.448Z,5.80
2019-06-26T22:59:52.491Z,5.70
2019-06-26T23:02:25.529Z,6.00
2019-06-26T23:04:58.600Z,5.37
2019-06-26T23:07:31.665Z,5.03
2019-06-26T23:10:05.137Z,5.40
2019-06-26T23:12:38.267Z,5.20
2019-06-26T23:15:11.373Z,5.58
2019-06-26T23:17:44.589Z,4.70
2019-06-26T23:20:17.998Z,4.33
2019-06-26T23:22:51.105Z,4.25
2019-06-26T23:25:25.142Z,4.33
2019-06-26T23:27:58.195Z,3.60
2019-06-26T23:30:31.101Z,3.50
2019-06-26T23:33:04.039Z,4.05
2019-06-26T23:35:37.210Z,3.72
2019-06-26T23:38:10.207Z,3.75
2019-06-26T23:40:43.272Z,3.30
2019-06-26T23:43:16.332Z,3.40
2019-06-26T23:45:49.257Z,3.20
2019-06-26T23:48:22.528Z,2.92
2019-06-26T23:50:55.438Z,3.12
2019-06-26T23:53:28.383Z,2.80
2019-06-26T23:56:01.452Z,2.87
2019-06-26T23:58:34.359Z,2.80
